createdAt,value
2023-06-10T00:03:59.027Z,2.83
2023-06-10T00:08:00.833Z,2.40
2023-06-10T00:12:03.313Z,2.70
2023-06-10T00:16:05.255Z,3.28
2023-06-10T00:20:13.201Z,2.70
2023-06-10T00:24:15.580Z,2.45
2023-06-10T00:28:17.516Z,2.60
2023-06-10T00:32:19.297Z,2.60
2023-06-10T00:36:21.677Z,3.00
2023-06-10T00:40:23.404Z,2.25
2023-06-10T00:44:25.347Z,2.67
2023-06-10T00:48:28.038Z,2.38
2023-06-10T00:52:31.767Z,2.55
2023-06-10T00:56:35.712Z,2.80
2023-06-10T01:00:37.578Z,2.42
2023-06-10T01:04:39.345Z,2.75
2023-06-10T01:08:46.884Z,2.15
2023-06-10T01:13:04.681Z,2.42
2023-06-10T01:17:09.998Z,2.30
2023-06-10T01:21:22.206Z,2.72
2023-06-10T01:25:28.616Z,2.20
2023-06-10T01:29:46.677Z,2.78
2023-06-10T01:33:53.968Z,2.50
2023-06-10T01:37:59.417Z,2.80
2023-06-10T01:42:03.546Z,2.42
2023-06-10T01:46:06.871Z,3.22
2023-06-10T01:50:09.087Z,3.45
2023-06-10T01:54:11.405Z,2.85
2023-06-10T01:58:13.176Z,2.78
2023-06-10T02:02:15.424Z,3.05
2023-06-10T02:06:17.164Z,2.95
2023-06-10T02:10:18.944Z,3.20
2023-06-10T02:14:21.014Z,3.13
2023-06-10T02:18:23.035Z,3.70
2023-06-10T02:22:24.876Z,3.20
2023-06-10T02:26:27.151Z,3.47
2023-06-10T02:30:29.284Z,3.22
2023-06-10T02:34:31.285Z,3.53
2023-06-10T02:38:34.606Z,2.97
2023-06-10T02:42:36.762Z,3.15
2023-06-10T02:46:39.007Z,2.88
2023-06-10T02:50:41.495Z,3.00
2023-06-10T02:54:53.698Z,3.35
2023-06-10T02:58:56.770Z,2.90
2023-06-10T03:03:04.403Z,3.35
2023-06-10T03:07:12.210Z,2.85
2023-06-10T03:11:14.135Z,2.83
2023-06-10T03:15:16.997Z,3.05
2023-06-10T03:19:19.576Z,2.78
2023-06-10T03:23:25.222Z,3.40
2023-06-10T03:27:30.313Z,3.67
2023-06-10T03:31:38.575Z,3.15
2023-06-10T03:35:42.980Z,3.80
2023-06-10T03:39:46.428Z,2.92
2023-06-10T03:43:48.820Z,3.00
2023-06-10T03:47:52.083Z,3.58
2023-06-10T03:51:59.022Z,2.75
2023-06-10T03:56:02.667Z,3.22
2023-06-10T04:00:13.362Z,3.13
2023-06-10T04:04:18.703Z,3.50
2023-06-10T04:08:22.287Z,3.15
2023-06-10T04:12:24.557Z,3.28
2023-06-10T04:16:26.867Z,3.35
2023-06-10T04:20:29.455Z,3.28
2023-06-10T04:24:31.730Z,3.13
2023-06-10T04:28:33.921Z,3.15
2023-06-10T04:32:36.231Z,3.08
2023-06-10T04:36:38.472Z,2.92
2023-06-10T04:40:41.660Z,3.03
2023-06-10T04:44:45.278Z,3.30
2023-06-10T04:48:48.421Z,3.30
2023-06-10T04:52:51.061Z,3.30
2023-06-10T04:56:53.564Z,3.63
2023-06-10T05:00:56.181Z,3.50
2023-06-10T05:04:59.298Z,2.97
2023-06-10T05:09:01.247Z,3.40
2023-06-10T05:13:04.171Z,3.42
2023-06-10T05:17:08.223Z,3.15
2023-06-10T05:21:10.272Z,4.03
2023-06-10T05:25:12.203Z,3.10
2023-06-10T05:29:14.255Z,3.42
2023-06-10T05:33:16.642Z,3.60
2023-06-10T05:37:18.443Z,3.65
2023-06-10T05:41:20.217Z,3.47
2023-06-10T05:45:22.272Z,3.25
2023-06-10T05:49:24.029Z,3.63
2023-06-10T05:53:25.783Z,3.35
2023-06-10T05:57:27.549Z,3.58
2023-06-10T06:01:29.305Z,3.33
2023-06-10T06:05:35.861Z,3.35
2023-06-10T06:09:37.687Z,3.45
2023-06-10T06:13:39.492Z,3.38
2023-06-10T06:17:41.338Z,2.72
2023-06-10T06:21:43.142Z,2.95
2023-06-10T06:25:44.902Z,3.55
2023-06-10T06:29:46.638Z,3.35
2023-06-10T06:33:48.891Z,3.20
2023-06-10T06:37:50.654Z,3.92
2023-06-10T06:41:57.573Z,3.25
2023-06-10T06:46:17.807Z,3.45
2023-06-10T06:50:20.506Z,3.45
2023-06-10T06:54:22.215Z,4.47
2023-06-10T06:58:23.989Z,3.72
2023-06-10T07:02:25.940Z,3.45
2023-06-10T07:06:27.680Z,3.28
2023-06-10T07:10:29.612Z,3.58
2023-06-10T07:14:31.454Z,4.28
2023-06-10T07:18:33.350Z,3.92
2023-06-10T07:22:35.233Z,3.58
2023-06-10T07:26:37.015Z,4.43
2023-06-10T07:30:38.854Z,4.53
2023-06-10T07:34:40.644Z,3.70
2023-06-10T07:38:43.537Z,3.80
2023-06-10T07:42:45.338Z,3.95
2023-06-10T07:46:47.120Z,3.75
2023-06-10T07:50:48.934Z,3.83
2023-06-10T07:54:50.863Z,3.55
2023-06-10T07:58:53.702Z,3.00
2023-06-10T08:02:55.525Z,3.97
2023-06-10T08:06:57.557Z,3.33
2023-06-10T08:10:59.362Z,3.40
2023-06-10T08:15:01.537Z,3.10
2023-06-10T08:19:03.823Z,3.10
2023-06-10T08:23:05.730Z,3.55
2023-06-10T08:27:07.568Z,3.13
2023-06-10T08:31:09.310Z,2.92
2023-06-10T08:35:11.361Z,3.28
2023-06-10T08:39:13.343Z,3.35
2023-06-10T08:43:27.288Z,3.55
2023-06-10T08:47:32.515Z,3.22
2023-06-10T08:51:37.683Z,3.90
2023-06-10T08:55:43.319Z,3.88
2023-06-10T08:59:45.504Z,3.45
2023-06-10T09:03:47.428Z,3.60
2023-06-10T09:07:50.117Z,3.58
2023-06-10T09:11:51.931Z,3.83
2023-06-10T09:15:53.836Z,3.47
2023-06-10T09:19:56.592Z,3.35
2023-06-10T09:23:59.063Z,3.60
2023-06-10T09:28:00.861Z,3.10
2023-06-10T09:32:02.992Z,2.88
2023-06-10T09:36:05.013Z,3.33
2023-06-10T09:40:10.298Z,3.33
2023-06-10T09:44:14.480Z,3.45
2023-06-10T09:48:16.332Z,4.18
2023-06-10T09:52:28.497Z,4.60
2023-06-10T09:56:37.168Z,3.42
2023-06-10T10:00:38.912Z,3.20
2023-06-10T10:04:40.689Z,3.30
2023-06-10T10:08:42.684Z,2.60
2023-06-10T10:12:47.587Z,3.35
2023-06-10T10:16:51.222Z,3.35
2023-06-10T10:20:56.198Z,3.28
2023-06-10T10:25:02.787Z,3.45
2023-06-10T10:29:46.127Z,3.70
2023-06-10T10:34:00.868Z,4.07
2023-06-10T10:38:03.622Z,4.07
2023-06-10T10:42:06.816Z,3.60
2023-06-10T10:46:14.670Z,3.67
2023-06-10T10:50:18.777Z,3.40
2023-06-10T10:54:30.779Z,3.42
2023-06-10T10:58:33.256Z,3.47
2023-06-10T11:02:39.524Z,3.70
2023-06-10T11:06:53.617Z,2.97
2023-06-10T11:10:55.597Z,2.92
2023-06-10T11:14:57.522Z,3.00
2023-06-10T11:18:59.335Z,3.72
2023-06-10T11:23:02.682Z,2.75
2023-06-10T11:27:21.922Z,3.30
2023-06-10T11:31:26.073Z,3.63
2023-06-10T11:35:28.521Z,3.22
2023-06-10T11:39:30.869Z,3.13
2023-06-10T11:43:32.732Z,3.00
2023-06-10T11:47:34.557Z,2.65
2023-06-10T11:51:41.636Z,2.83
2023-06-10T11:55:44.402Z,2.55
2023-06-10T11:59:46.181Z,3.08
2023-06-10T12:03:48.111Z,2.70
2023-06-10T12:07:50.047Z,3.20
2023-06-10T12:12:03.892Z,3.10
2023-06-10T12:16:10.425Z,2.85
2023-06-10T12:20:29.462Z,2.60
2023-06-10T12:24:31.249Z,3.03
2023-06-10T12:28:33.032Z,2.90
2023-06-10T12:32:46.413Z,2.58
2023-06-10T12:36:51.477Z,2.90
2023-06-10T12:40:53.226Z,2.95
2023-06-10T12:44:55.712Z,2.70
2023-06-10T12:48:57.482Z,2.60
2023-06-10T12:53:01.569Z,2.70
2023-06-10T12:57:03.994Z,2.60
2023-06-10T13:01:06.144Z,3.50
2023-06-10T13:05:09.102Z,3.17
2023-06-10T13:09:11.561Z,3.47
2023-06-10T13:13:15.212Z,3.25
2023-06-10T13:17:17.802Z,3.42
2023-06-10T13:21:19.666Z,3.20
2023-06-10T13:25:21.431Z,2.90
2023-06-10T13:29:23.337Z,2.90
2023-06-10T13:33:25.200Z,2.92
2023-06-10T13:37:26.981Z,3.00
2023-06-10T13:41:29.821Z,2.95
2023-06-10T13:45:31.887Z,3.00
2023-06-10T13:49:33.661Z,2.78
2023-06-10T13:53:35.724Z,2.70
2023-06-10T13:57:37.489Z,2.90
2023-06-10T14:01:39.839Z,3.17
2023-06-10T14:05:41.871Z,3.10
2023-06-10T14:09:43.780Z,3.53
2023-06-10T14:13:45.497Z,3.22
2023-06-10T14:17:47.310Z,2.95
2023-06-10T14:21:50.580Z,3.30
2023-06-10T14:25:52.352Z,2.50
2023-06-10T14:29:54.094Z,2.85
2023-06-10T14:33:55.895Z,3.13
2023-06-10T14:37:57.640Z,2.90
2023-06-10T14:41:59.485Z,2.72
2023-06-10T14:46:01.330Z,3.08
2023-06-10T14:50:03.338Z,2.63
2023-06-10T14:54:05.126Z,2.45
2023-06-10T14:58:06.897Z,2.30
2023-06-10T15:02:08.763Z,2.40
2023-06-10T15:06:10.492Z,2.55
2023-06-10T15:10:13.102Z,2.63
2023-06-10T15:14:14.910Z,3.17
2023-06-10T15:18:16.675Z,2.70
2023-06-10T15:22:18.648Z,2.78
2023-06-10T15:26:20.590Z,2.85
2023-06-10T15:30:22.306Z,2.58
2023-06-10T15:34:24.052Z,2.42
2023-06-10T15:38:25.886Z,2.33
2023-06-10T15:42:27.650Z,1.98
2023-06-10T15:46:31.076Z,1.90
2023-06-10T15:50:32.992Z,1.60
2023-06-10T15:54:34.877Z,1.70
2023-06-10T15:58:36.604Z,1.67
2023-06-10T16:02:38.447Z,1.45
2023-06-10T16:06:40.240Z,1.60
2023-06-10T16:10:41.971Z,1.70
2023-06-10T16:14:43.652Z,1.52
2023-06-10T16:18:45.493Z,1.50
2023-06-10T16:22:47.263Z,1.55
2023-06-10T16:26:49.643Z,1.63
2023-06-10T16:30:51.628Z,1.73
2023-06-10T16:34:53.415Z,1.67
2023-06-10T16:38:58.543Z,1.45
2023-06-10T16:43:00.400Z,2.33
2023-06-10T16:47:02.221Z,2.22
2023-06-10T16:51:04.408Z,2.03
2023-06-10T16:55:06.501Z,2.28
2023-06-10T16:59:08.639Z,2.42
2023-06-10T17:03:11.506Z,2.78
2023-06-10T17:07:13.323Z,2.63
2023-06-10T17:11:15.084Z,2.17
2023-06-10T17:15:16.917Z,2.05
2023-06-10T17:19:18.958Z,1.95
2023-06-10T17:23:20.804Z,2.70
2023-06-10T17:27:25.848Z,2.30
2023-06-10T17:31:27.941Z,2.08
2023-06-10T17:35:29.821Z,2.28
2023-06-10T17:39:31.649Z,2.47
2023-06-10T17:43:33.363Z,2.33
2023-06-10T17:47:35.223Z,2.30
2023-06-10T17:51:37.848Z,2.15
2023-06-10T17:55:39.593Z,2.30
2023-06-10T17:59:42.253Z,2.40
2023-06-10T18:03:44.116Z,2.22
2023-06-10T18:07:46.354Z,2.20
2023-06-10T18:11:48.092Z,2.25
2023-06-10T18:15:49.898Z,2.53
2023-06-10T18:19:51.731Z,2.03
2023-06-10T18:23:53.593Z,2.53
2023-06-10T18:27:55.620Z,2.60
2023-06-10T18:31:57.356Z,2.30
2023-06-10T18:35:59.240Z,2.40
2023-06-10T18:40:01.383Z,2.08
2023-06-10T18:44:03.155Z,2.10
2023-06-10T18:48:05.272Z,2.22
2023-06-10T18:52:07.414Z,2.30
2023-06-10T18:56:09.504Z,2.35
2023-06-10T19:00:13.690Z,2.20
2023-06-10T19:04:15.477Z,2.05
2023-06-10T19:08:17.938Z,2.20
2023-06-10T19:12:19.937Z,2.13
2023-06-10T19:16:21.693Z,2.33
2023-06-10T19:20:23.463Z,2.10
2023-06-10T19:24:25.349Z,1.88
2023-06-10T19:28:27.222Z,2.22
2023-06-10T19:32:29.543Z,2.13
2023-06-10T19:36:31.471Z,2.17
2023-06-10T19:40:33.199Z,2.10
2023-06-10T19:44:34.950Z,2.50
2023-06-10T19:48:36.789Z,2.25
2023-06-10T19:52:38.656Z,2.40
2023-06-10T19:56:40.526Z,2.42
2023-06-10T20:00:42.329Z,2.38
2023-06-10T20:04:44.117Z,2.20
2023-06-10T20:08:45.866Z,2.53
2023-06-10T20:12:47.637Z,2.80
2023-06-10T20:16:49.530Z,2.60
2023-06-10T20:20:51.503Z,2.67
2023-06-10T20:24:53.297Z,2.33
2023-06-10T20:28:55.093Z,2.67
2023-06-10T20:32:56.945Z,2.42
2023-06-10T20:36:58.923Z,2.42
2023-06-10T20:41:01.113Z,2.30
2023-06-10T20:45:04.137Z,2.50
2023-06-10T20:49:06.144Z,2.45
2023-06-10T20:53:07.866Z,2.90
2023-06-10T20:57:09.638Z,2.75
2023-06-10T21:01:11.766Z,2.63
2023-06-10T21:05:13.633Z,2.95
2023-06-10T21:09:15.752Z,2.60
2023-06-10T21:13:17.459Z,2.92
2023-06-10T21:17:19.180Z,2.65
2023-06-10T21:21:21.456Z,2.70
2023-06-10T21:25:23.316Z,2.22
2023-06-10T21:29:25.043Z,2.55
2023-06-10T21:33:27.869Z,2.45
2023-06-10T21:37:29.789Z,2.65
2023-06-10T21:41:31.533Z,2.67
2023-06-10T21:45:33.318Z,2.80
2023-06-10T21:49:35.202Z,2.78
2023-06-10T21:53:37.049Z,2.58
2023-06-10T21:57:38.762Z,3.00
2023-06-10T22:01:41.249Z,2.95
2023-06-10T22:05:43.729Z,3.40
2023-06-10T22:09:49.932Z,3.05
2023-06-10T22:13:51.864Z,3.07
2023-06-10T22:17:53.666Z,2.40
2023-06-10T22:21:55.430Z,2.85
2023-06-10T22:25:57.437Z,2.80
2023-06-10T22:29:59.292Z,3.28
2023-06-10T22:34:01.032Z,2.70
2023-06-10T22:38:03.825Z,2.83
2023-06-10T22:42:09.449Z,3.33
2023-06-10T22:46:11.286Z,2.88
2023-06-10T22:50:13.026Z,2.90
2023-06-10T22:54:15.275Z,2.70
2023-06-10T22:58:19.582Z,3.10
2023-06-10T23:02:22.934Z,3.40
2023-06-10T23:06:24.969Z,3.20
2023-06-10T23:10:26.721Z,2.95
2023-06-10T23:14:28.456Z,3.00
2023-06-10T23:18:30.894Z,2.63
2023-06-10T23:22:33.050Z,2.60
2023-06-10T23:26:34.913Z,2.85
2023-06-10T23:30:36.640Z,3.03
2023-06-10T23:34:38.389Z,2.80
2023-06-10T23:38:40.208Z,3.20
2023-06-10T23:42:42.670Z,2.67
2023-06-10T23:46:44.483Z,3.05
2023-06-10T23:50:46.944Z,3.00
2023-06-10T23:54:49.480Z,2.83
2023-06-10T23:58:51.824Z,2.92
